Time;durP1;ratioP1;P1;durP2;ratioP2;P2;SDS_P1;SDS_P2;PMS_P1;PMS_P2;Temp;Humidity;BMP_temperature;BMP_pressure;BME280_temperature;BME280_humidity;BME280_pressure;Samples;Min_cycle;Max_cycle;Signal;HPM_P1;HPM_P2
2021/03/05 00:04:44;;;;;;;7.40;4.38;;;;;;;0.52;100.00;100422.03;20704369;28;20275;-61
2021/03/05 00:14:44;;;;;;;5.70;3.47;;;;;;;0.46;99.42;100420.44;20698257;28;20764;-59
2021/03/05 00:24:45;;;;;;;10.00;4.03;;;;;;;0.40;98.43;100411.81;20662944;28;20213;-72
2021/03/05 00:34:45;;;;;;;6.63;3.43;;;;;;;0.37;97.76;100412.72;20693912;28;20224;-56
2021/03/05 00:44:46;;;;;;;6.20;3.42;;;;;;;0.33;96.37;100411.09;20702030;28;20513;-56
2021/03/05 00:54:46;;;;;;;7.57;3.70;;;;;;;0.24;96.69;100417.38;20718156;28;20627;-58
2021/03/05 01:04:47;;;;;;;6.27;2.90;;;;;;;0.14;96.44;100415.84;20697009;28;20256;-55
2021/03/05 01:14:48;;;;;;;6.93;2.80;;;;;;;0.05;95.12;100410.78;20718577;28;20663;-62
2021/03/05 01:24:48;;;;;;;4.50;2.50;;;;;;;0.05;95.62;100408.16;20687310;28;20704;-60
2021/03/05 01:34:48;;;;;;;4.37;2.20;;;;;;;0.00;95.66;100396.91;20725697;28;20241;-56
2021/03/05 01:44:49;;;;;;;4.90;2.23;;;;;;;0.01;96.27;100398.63;20717387;28;20459;-65
2021/03/05 01:54:49;;;;;;;5.22;2.33;;;;;;;-0.01;96.34;100411.78;20723574;28;20224;-55
2021/03/05 02:04:50;;;;;;;3.17;1.80;;;;;;;-0.04;95.27;100417.09;20702795;28;20304;-56
2021/03/05 02:14:51;;;;;;;4.23;2.03;;;;;;;-0.06;96.30;100433.75;20715689;28;20640;-56
2021/03/05 02:25:11;;;;;;;5.03;2.40;;;;;;;-0.12;96.49;100424.22;20727328;28;20224;-59
2021/03/05 02:35:12;;;;;;;6.23;3.10;;;;;;;-0.16;97.76;100432.19;20685301;28;20233;-58
2021/03/05 02:45:17;;;;;;;4.77;2.63;;;;;;;-0.26;97.46;100430.63;20709172;28;20271;-57
2021/03/05 02:55:19;;;;;;;6.17;3.00;;;;;;;-0.29;97.67;100443.81;20705378;28;20256;-55
2021/03/05 03:05:21;;;;;;;5.73;2.87;;;;;;;-0.35;98.44;100447.38;20707273;28;20248;-60
2021/03/05 03:15:28;;;;;;;7.97;3.07;;;;;;;-0.36;98.03;100456.13;20689648;28;20236;-56
2021/03/05 03:25:28;;;;;;;5.80;2.70;;;;;;;-0.51;99.66;100462.53;20718939;28;20486;-56
2021/03/05 03:35:29;;;;;;;4.70;2.83;;;;;;;-0.67;100.00;100466.28;20712187;28;20221;-56
2021/03/05 03:45:32;;;;;;;7.10;3.30;;;;;;;-0.74;100.00;100475.16;20694124;28;20304;-56
2021/03/05 03:55:39;;;;;;;7.27;3.30;;;;;;;-0.80;100.00;100477.84;20700278;28;20324;-56
2021/03/05 04:05:44;;;;;;;7.13;3.20;;;;;;;-0.82;100.00;100477.00;20702417;28;20231;-56
2021/03/05 04:15:44;;;;;;;5.60;3.50;;;;;;;-0.62;99.50;100500.28;20719902;28;20274;-56
2021/03/05 04:25:45;;;;;;;4.97;3.20;;;;;;;-0.63;99.83;100519.53;20648452;28;20586;-56
2021/03/05 04:35:45;;;;;;;4.40;3.13;;;;;;;-0.72;100.00;100520.50;20719325;28;20221;-56
2021/03/05 04:45:46;;;;;;;5.07;3.07;;;;;;;-0.94;100.00;100525.19;20701580;28;20623;-60
2021/03/05 04:55:46;;;;;;;8.40;3.40;;;;;;;-1.09;100.00;100536.75;20697927;28;20599;-57
2021/03/05 05:05:47;;;;;;;6.03;3.10;;;;;;;-1.15;100.00;100555.16;20711868;28;20257;-56
2021/03/05 05:15:47;;;;;;;7.93;3.30;;;;;;;-1.16;100.00;100556.06;20722994;28;20229;-57
2021/03/05 05:25:48;;;;;;;6.53;3.23;;;;;;;-1.22;100.00;100566.63;20728746;28;20213;-57
2021/03/05 05:35:48;;;;;;;4.63;2.93;;;;;;;-1.29;100.00;100583.28;20738051;28;20696;-56
2021/03/05 05:45:48;;;;;;;6.63;3.57;;;;;;;-1.30;100.00;100585.91;20738024;28;20215;-56
2021/03/05 05:55:50;;;;;;;10.77;4.53;;;;;;;-1.44;100.00;100607.00;20740072;28;20759;-56
2021/03/05 06:05:51;;;;;;;10.03;4.73;;;;;;;-1.45;100.00;100626.22;20726353;28;20233;-55
2021/03/05 06:16:09;;;;;;;9.05;5.25;;;;;;;-1.58;100.00;100641.19;20688690;28;20217;-56
2021/03/05 06:26:10;;;;;;;9.83;6.03;;;;;;;-1.76;100.00;100648.31;20709107;28;20764;-63
2021/03/05 06:36:22;;;;;;;9.43;5.43;;;;;;;-1.40;100.00;100679.38;20690888;28;20231;-61
2021/03/05 06:46:39;;;;;;;6.20;4.70;;;;;;;-0.88;100.00;100698.03;20721831;28;20239;-59
2021/03/05 06:56:42;;;;;;;6.20;4.07;;;;;;;-0.51;98.98;100705.44;20717080;28;20278;-60
2021/03/05 07:06:43;;;;;;;5.43;3.70;;;;;;;-0.42;96.75;100716.66;20734047;28;20225;-57
2021/03/05 07:16:47;;;;;;;8.07;3.70;;;;;;;-0.40;95.99;100733.22;20734249;28;20351;-58
2021/03/05 07:27:01;;;;;;;11.07;4.07;;;;;;;-0.25;93.89;100732.16;20734265;28;20228;-58
2021/03/05 07:37:11;;;;;;;7.80;4.10;;;;;;;0.41;92.57;100747.78;20732663;28;20225;-59
2021/03/05 07:47:14;;;;;;;6.00;3.90;;;;;;;0.72;89.49;100750.78;20733292;28;20240;-58
2021/03/05 07:57:14;;;;;;;6.30;3.37;;;;;;;0.77;86.42;100754.19;20732456;28;20225;-57
2021/03/05 08:07:19;;;;;;;8.43;3.47;;;;;;;0.51;86.14;100759.00;20731951;28;20654;-60
2021/03/05 08:17:30;;;;;;;5.97;3.50;;;;;;;0.40;86.67;100766.19;20716201;28;22033;-56
2021/03/05 08:27:31;;;;;;;6.20;3.60;;;;;;;0.47;87.00;100771.34;20674157;28;20217;-56
2021/03/05 08:37:34;;;;;;;6.10;3.13;;;;;;;1.07;86.59;100777.31;20671730;28;20264;-61
2021/03/05 08:47:35;;;;;;;5.73;3.97;;;;;;;1.13;85.29;100783.31;20666332;28;20503;-54
2021/03/05 08:57:40;;;;;;;4.83;3.60;;;;;;;1.15;87.04;100798.19;20682361;28;21012;-57
2021/03/05 09:07:51;;;;;;;4.67;3.17;;;;;;;1.45;82.17;100796.72;20665638;28;20264;-55
2021/03/05 09:17:53;;;;;;;3.37;2.40;;;;;;;1.93;82.30;100799.28;20643859;28;20575;-55
2021/03/05 09:27:56;;;;;;;5.10;2.97;;;;;;;2.38;75.12;100803.50;20671908;28;20229;-55
2021/03/05 09:37:57;;;;;;;4.57;2.40;;;;;;;2.80;72.34;100806.88;20690448;28;20304;-55
2021/03/05 09:48:06;;;;;;;2.37;1.60;;;;;;;3.42;66.65;100809.66;20669409;28;20297;-56
2021/03/05 09:58:11;;;;;;;2.70;1.97;;;;;;;3.36;62.42;100811.63;20685251;28;20230;-55
2021/03/05 10:08:18;;;;;;;2.50;2.30;;;;;;;3.38;58.63;100830.91;20674148;28;20227;-60
2021/03/05 10:18:20;;;;;;;3.37;1.77;;;;;;;2.81;59.67;100845.50;20685878;28;20580;-59
2021/03/05 10:28:30;;;;;;;8.97;6.13;;;;;;;3.28;56.92;100876.88;20684069;28;20224;-55
2021/03/05 10:38:31;;;;;;;1.00;0.80;;;;;;;3.36;56.09;100870.50;20662607;28;20245;-55
2021/03/05 10:48:31;;;;;;;1.30;0.83;;;;;;;3.54;57.33;100884.97;20683588;28;20220;-55
2021/03/05 10:58:32;;;;;;;1.43;1.10;;;;;;;4.12;58.50;100888.66;20680313;28;20815;-57
2021/03/05 11:08:33;;;;;;;1.87;1.00;;;;;;;3.45;56.79;100898.41;20659365;28;20752;-59
2021/03/05 11:18:33;;;;;;;1.73;0.80;;;;;;;4.35;55.19;100896.75;20645889;28;20248;-55
2021/03/05 11:28:34;;;;;;;1.23;1.13;;;;;;;4.11;55.14;100910.69;20679345;28;20296;-54
2021/03/05 11:38:34;;;;;;;2.20;1.37;;;;;;;3.33;54.41;100898.72;20679716;28;20523;-54
2021/03/05 11:48:35;;;;;;;1.90;1.00;;;;;;;3.16;55.52;100889.47;20678472;28;20460;-60
2021/03/05 11:58:36;;;;;;;1.03;0.97;;;;;;;2.78;56.54;100898.28;20676947;28;20476;-55
2021/03/05 12:08:37;;;;;;;1.90;0.97;;;;;;;3.96;56.08;100897.03;20676358;28;20254;-61
2021/03/05 12:18:38;;;;;;;1.77;1.20;;;;;;;4.33;54.87;100914.47;20674360;28;20992;-56
2021/03/05 12:28:38;;;;;;;3.57;1.50;;;;;;;3.70;55.46;100904.78;20675723;28;20269;-62
2021/03/05 12:38:41;;;;;;;1.63;1.43;;;;;;;3.43;57.05;100921.31;20672201;28;20246;-54
2021/03/05 12:48:42;;;;;;;1.90;1.20;;;;;;;3.35;56.71;100921.53;20674987;28;20500;-54
2021/03/05 12:58:42;;;;;;;2.50;1.80;;;;;;;3.79;53.04;100930.06;20674728;28;20235;-56
2021/03/05 13:08:43;;;;;;;2.10;1.60;;;;;;;3.85;52.62;100946.63;20672640;28;20338;-56
2021/03/05 13:18:44;;;;;;;4.87;2.60;;;;;;;3.67;56.29;100955.00;20673589;28;20235;-56
2021/03/05 13:28:47;;;;;;;5.57;2.83;;;;;;;2.33;68.62;100984.44;20681321;28;20219;-55
2021/03/05 13:38:48;;;;;;;4.13;3.23;;;;;;;1.39;82.10;101009.84;20682124;28;20597;-56
2021/03/05 13:48:48;;;;;;;3.50;2.73;;;;;;;1.05;82.71;101004.22;20685320;28;20283;-57
2021/03/05 13:58:49;;;;;;;2.80;2.50;;;;;;;1.45;82.80;101012.34;20686139;28;20285;-56
2021/03/05 14:08:49;;;;;;;5.70;4.13;;;;;;;1.76;80.29;101008.34;20684870;28;20640;-55
2021/03/05 14:18:50;;;;;;;2.93;1.80;;;;;;;1.94;78.04;101008.88;20676504;28;20228;-55
2021/03/05 14:28:50;;;;;;;9.70;5.80;;;;;;;2.06;78.06;101009.53;20690255;28;20542;-56
2021/03/05 14:38:51;;;;;;;2.83;2.30;;;;;;;1.97;73.96;101011.47;20687703;28;20226;-59
2021/03/05 14:48:51;;;;;;;3.93;2.63;;;;;;;1.87;73.09;101009.91;20686709;28;20476;-56
2021/03/05 14:58:51;;;;;;;6.23;3.10;;;;;;;1.72;72.39;101046.09;20688514;28;20229;-56
2021/03/05 15:08:53;;;;;;;7.03;4.10;;;;;;;2.14;69.59;101043.66;20687160;28;20508;-61
2021/03/05 15:18:53;;;;;;;4.07;3.40;;;;;;;2.30;69.49;101052.09;20686516;28;20228;-56
2021/03/05 15:28:54;;;;;;;7.27;3.50;;;;;;;1.77;79.76;101089.00;20679446;28;20228;-56
2021/03/05 15:38:54;;;;;;;3.27;2.40;;;;;;;0.45;92.30;101113.56;20678655;28;21024;-55
2021/03/05 15:48:56;;;;;;;3.80;1.77;;;;;;;0.18;95.92;101094.56;20682737;28;21192;-55
2021/03/05 15:59:24;;;;;;;1.37;1.27;;;;;;;-0.24;96.92;101101.03;20675970;28;21028;-55
2021/03/05 16:09:25;;;;;;;1.47;1.00;;;;;;;-0.69;98.11;101106.59;20679335;28;20229;-55
2021/03/05 16:19:25;;;;;;;1.03;1.00;;;;;;;-1.29;99.06;101127.81;20682535;28;20295;-55
2021/03/05 16:29:26;;;;;;;1.10;1.10;;;;;;;-1.76;100.00;101147.97;20661867;28;20223;-54
2021/03/05 16:39:27;;;;;;;1.13;1.10;;;;;;;-2.09;100.00;101165.44;20681708;28;20299;-55
2021/03/05 16:49:27;;;;;;;10.33;4.90;;;;;;;-2.18;100.00;101181.09;20678686;28;20228;-56
2021/03/05 16:59:27;;;;;;;6.43;4.40;;;;;;;-2.14;100.00;101190.69;20678463;28;20428;-55
2021/03/05 17:09:29;;;;;;;4.47;3.40;;;;;;;-2.09;100.00;101202.03;20691406;28;20492;-56
2021/03/05 17:19:30;;;;;;;6.03;3.73;;;;;;;-2.21;100.00;101220.31;20701431;28;20364;-55
2021/03/05 17:29:31;;;;;;;33.43;15.23;;;;;;;-2.37;100.00;101229.84;20748242;28;20307;-56
2021/03/05 17:39:38;;;;;;;26.37;14.23;;;;;;;-2.37;100.00;101242.03;20748815;28;20456;-57
2021/03/05 17:49:38;;;;;;;10.93;6.60;;;;;;;-2.38;100.00;101250.75;20747916;28;20221;-56
2021/03/05 17:59:39;;;;;;;21.67;10.13;;;;;;;-2.48;100.00;101254.19;20748750;28;20275;-56
2021/03/05 18:09:39;;;;;;;7.80;5.23;;;;;;;-2.63;100.00;101261.09;20747725;28;20235;-56
2021/03/05 18:19:40;;;;;;;26.97;10.60;;;;;;;-2.76;100.00;101261.91;20728585;28;20217;-56
2021/03/05 18:29:40;;;;;;;19.27;9.90;;;;;;;-2.51;100.00;101275.09;20746414;28;20456;-56
2021/03/05 18:39:41;;;;;;;48.63;19.27;;;;;;;-2.54;100.00;101289.88;20745547;28;20479;-56
2021/03/05 18:49:41;;;;;;;22.50;13.90;;;;;;;-2.43;100.00;101294.31;20744471;28;20212;-57
2021/03/05 18:59:42;;;;;;;28.83;14.47;;;;;;;-2.43;100.00;101300.41;20742092;28;20524;-57
2021/03/05 19:09:48;;;;;;;22.70;12.57;;;;;;;-2.27;100.00;101319.63;20741367;28;20347;-63
2021/03/05 19:19:49;;;;;;;23.37;14.00;;;;;;;-1.97;100.00;101332.81;20739126;28;20336;-58
2021/03/05 19:29:50;;;;;;;26.27;14.10;;;;;;;-1.76;100.00;101346.81;20741968;28;20233;-57
2021/03/05 19:39:50;;;;;;;19.77;12.30;;;;;;;-1.81;100.00;101352.88;20741223;28;20270;-58
2021/03/05 19:49:57;;;;;;;12.50;6.90;;;;;;;-1.72;100.00;101365.16;20740623;28;20272;-58
2021/03/05 19:59:58;;;;;;;14.23;8.33;;;;;;;-1.55;100.00;101380.88;20742385;28;20315;-58
2021/03/05 20:09:58;;;;;;;9.00;5.50;;;;;;;-1.63;100.00;101383.47;20738943;28;20248;-57
2021/03/05 20:19:59;;;;;;;13.23;6.17;;;;;;;-1.70;100.00;101399.16;20738944;28;20221;-57
2021/03/05 20:29:59;;;;;;;9.80;4.70;;;;;;;-1.76;100.00;101399.13;20738667;28;20296;-58
2021/03/05 20:40:00;;;;;;;4.85;3.30;;;;;;;-1.91;100.00;101413.91;20748573;28;20460;-57
2021/03/05 20:50:00;;;;;;;11.60;5.17;;;;;;;-2.02;100.00;101418.22;20736907;28;20228;-59
2021/03/05 21:00:01;;;;;;;20.92;9.20;;;;;;;-2.04;100.00;101422.56;20752830;28;20224;-62
2021/03/05 21:10:03;;;;;;;14.25;7.63;;;;;;;-1.93;100.00;101428.72;20685556;28;20225;-56
2021/03/05 21:20:05;;;;;;;7.20;4.63;;;;;;;-1.72;100.00;101434.91;20684058;28;20220;-56
2021/03/05 21:30:06;;;;;;;5.63;3.73;;;;;;;-1.54;100.00;101437.56;20686957;28;20240;-55
2021/03/05 21:40:07;;;;;;;5.50;3.50;;;;;;;-1.52;100.00;101430.63;20695373;28;20218;-55
2021/03/05 21:50:08;;;;;;;5.77;3.20;;;;;;;-1.57;100.00;101440.22;20740625;28;20835;-55
2021/03/05 22:00:09;;;;;;;4.80;3.17;;;;;;;-1.69;100.00;101450.63;20742208;28;20248;-55
2021/03/05 22:10:10;;;;;;;2.47;2.27;;;;;;;-1.79;100.00;101454.06;20741091;28;20221;-54
2021/03/05 22:20:12;;;;;;;4.93;2.27;;;;;;;-2.00;100.00;101453.09;20745746;28;20232;-55
2021/03/05 22:30:14;;;;;;;2.77;2.30;;;;;;;-2.01;100.00;101469.66;20740398;28;20223;-55
2021/03/05 22:40:15;;;;;;;5.40;2.90;;;;;;;-2.13;100.00;101487.03;20739065;28;20232;-55
2021/03/05 22:50:16;;;;;;;4.03;2.40;;;;;;;-2.25;100.00;101482.59;20738585;28;20209;-56
2021/03/05 23:00:23;;;;;;;5.60;3.53;;;;;;;-2.34;100.00;101499.09;20737300;28;20217;-55
2021/03/05 23:10:27;;;;;;;6.20;3.70;;;;;;;-2.38;100.00;101507.78;20736686;28;20232;-54
2021/03/05 23:20:32;;;;;;;5.67;4.17;;;;;;;-2.41;100.00;101506.84;20735988;28;20217;-55
2021/03/05 23:30:47;;;;;;;5.63;3.63;;;;;;;-2.51;100.00;101515.50;20735874;28;20697;-54
2021/03/05 23:40:49;;;;;;;6.37;3.73;;;;;;;-2.57;100.00;101529.41;20734580;28;20225;-54
2021/03/05 23:50:49;;;;;;;5.07;2.93;;;;;;;-2.57;100.00;101538.13;20734582;28;20217;-55
